Bornem, Belgium
Current Conditions -  °F | °C
As of 6:20 PM on Wednesday 26 Nov 2014 (Local Time) from EBAW Reporting Station
Haze Haze  
Wind Chill: 41°   Ceiling: 300
Heat Index: 45°   Visibility: 1.5mi
Dew Point: 41°   Wind: 7mph
Humidity: 87%   Direction: 120°ESE
Pressure: 29.85"   Gusts: NA
Location:  51.1°N, 4.24°E
Report Text: EBAW 261720Z 12006KT 2400 BR BKN003 07/05 Q1011 NOSIG
Loading
Personal Weather Stations






























Interactive Weather Map New forecast layout! Learn more

10-Day Weather Forecast

Advertisements
Track Severe Weather on mobile